Dayton, OH (45400)

9:20 AM EDT on August 30, 2015 (GMT -0400)
Oregon Historic District | | Change Station
CLOSE
Current Station
Personal Weather Station
Location: Dayton, OH
Elevation: 745 ft
Nearby Weather Stations

Elev 745 ft 39.75 °N, 84.18 °W | Updated 47 seconds ago

Mostly Cloudy
Mostly Cloudy
71.2 °F
Feels Like 71.2 °F
N
0.0
Wind Variable Wind from SSW
Gusts 0.0 mph

Today
High -- | Low -- °F
--% Chance of Precip.
Yesterday
High -- | Low -- °F
Precip. -- in
7:02 AM 8:11 PM
Full, 99% visible
Pressure 30.10 in
Visibility 10.0 miles
Clouds Few 13000 ft
Mostly Cloudy 16000 ft
Dew Point 69 °F
Humidity 94%
Rainfall 0.27 in
Snow Depth Not available.
UV 1 out of 12
Pollen 10.00 out of 12
Air Quality Not available.
Flu Activity Not available.
METAR KFFO 301258Z 18004KT 10SM FEW130 BKN160 21/21 A3010 RMK AO2A SLP191 T02110206
Pressure 30.10 in
Visibility 10.0 miles
Clouds Few 13000 ft
Mostly Cloudy 16000 ft
Dew Point 69 °F
Humidity 94%
Rainfall 0.27 in
Snow Depth Not available.
UV 1 out of 12
Pollen 10.00 out of 12
Air Quality Not available.
Flu Activity Not available.
METAR KFFO 301258Z 18004KT 10SM FEW130 BKN160 21/21 A3010 RMK AO2A SLP191 T02110206

10-Day Weather Forecast

×

Almanac

Astronomy

Aug. 30, 2015 Rise Set
Actual Time
Civil Twilight
Nautical Twilight
Astronomical Twilight
Moon
Length of Visible Light
Length of Day
Tomorrow will be .
, % of the Moon is Illuminated

Today's Extremes

State Highs State Lows

Community

WunderPhotos

Upload Photos

1,850,949 photos uploaded!

WunderBlogs® & News

Nearby

Air Quality

  Air Quality AQ Index Pollutant
Not available.

Snow Depth

Station Depth Elevation

Earthquake Activity

City Distance Mag. Time & Date
Minimum magnitude displayed is 2.5.

Coastal Water Temperatures

Place Temperature

Stations

Nearby Weather Stations

Station Location Temp. Windchill Dew Point Humidity Wind Precip. Elev Updated Type